Time;durP1;ratioP1;P1;durP2;ratioP2;P2;SDS_P1;SDS_P2;PMS_P1;PMS_P2;Temp;Humidity;BMP_temperature;BMP_pressure;BME280_temperature;BME280_humidity;BME280_pressure;Samples;Min_cycle;Max_cycle;Signal;HPM_P1;HPM_P2
2023/06/10 04:24:20;;;;;;;13.55;8.55;;;;;;;12.98;77.65;96289.88;2083684;28;20913;-56
2023/06/10 09:16:26;;;;;;;5.93;4.53;;;;;;;24.31;51.69;96347.47;2083636;28;20571;-59
2023/06/10 09:18:45;;;;;;;8.65;5.15;;;;;;;25.32;51.13;96340.28;2090988;28;20580;-58
2023/06/10 09:21:02;;;;;;;6.20;4.53;;;;;;;25.88;50.18;96343.06;2095869;27;21085;-58
2023/06/10 09:23:31;;;;;;;5.90;4.72;;;;;;;26.08;47.20;96349.69;2100582;27;20577;-58
2023/06/10 09:24:33;;;;;;;5.82;4.55;;;;;;;25.88;49.27;96351.06;2094858;28;20300;-58
2023/06/10 09:27:07;;;;;;;8.15;4.30;;;;;;;25.46;49.45;96336.97;2091834;28;20555;-58
2023/06/10 09:28:13;;;;;;;5.28;4.05;;;;;;;25.82;48.55;96357.09;2090426;28;20199;-58
2023/06/10 09:30:49;;;;;;;5.47;4.13;;;;;;;26.39;48.46;96353.41;2113763;27;20545;-59
2023/06/10 09:31:51;;;;;;;7.05;4.22;;;;;;;26.68;47.92;96350.03;2106241;28;20256;-58
2023/06/10 09:34:31;;;;;;;6.43;4.43;;;;;;;26.67;47.19;96347.56;2085785;28;20562;-57
2023/06/10 09:35:32;;;;;;;8.38;4.32;;;;;;;25.90;47.99;96338.34;2081582;28;20213;-57
2023/06/10 09:36:36;;;;;;;8.75;4.13;;;;;;;26.27;48.85;96352.13;2082057;28;20229;-59
2023/06/10 09:37:44;;;;;;;38.92;31.60;;;;;;;26.65;48.38;96346.88;2078857;28;20227;-61
2023/06/10 09:38:49;;;;;;;55.13;37.53;;;;;;;27.00;48.25;96350.84;2082164;28;20197;-60
2023/06/10 09:40:07;;;;;;;49.60;36.97;;;;;;;27.20;46.82;96348.53;2081115;28;20623;-61
2023/06/10 09:41:10;;;;;;;6.15;4.90;;;;;;;27.30;47.12;96344.75;2082831;28;20239;-61
2023/06/10 09:42:17;;;;;;;11.20;4.30;;;;;;;26.60;47.07;96335.88;2082468;28;20229;-61
2023/06/10 09:43:20;;;;;;;8.80;4.82;;;;;;;26.96;47.53;96341.53;2082160;28;20713;-61
2023/06/10 09:44:25;;;;;;;5.65;3.95;;;;;;;26.70;47.42;96345.38;2081902;28;20280;-61
2023/06/10 09:45:31;;;;;;;8.15;4.75;;;;;;;26.61;47.34;96348.25;2081417;28;20848;-61
2023/06/10 09:46:33;;;;;;;6.30;3.88;;;;;;;26.97;47.44;96324.44;2077854;28;20282;-61
2023/06/10 09:47:35;;;;;;;5.97;4.72;;;;;;;26.94;46.65;96340.03;2080627;28;20212;-61
2023/06/10 09:48:42;;;;;;;6.25;4.40;;;;;;;27.24;47.60;96340.97;2082610;28;20593;-61
2023/06/10 09:49:44;;;;;;;4.70;3.50;;;;;;;27.63;46.59;96339.09;2084429;28;20541;-60
2023/06/10 09:50:46;;;;;;;6.25;4.30;;;;;;;27.82;45.61;96341.28;2083619;28;20212;-60
2023/06/10 09:51:55;;;;;;;8.88;4.00;;;;;;;27.97;45.54;96335.91;2083760;28;20201;-61
2023/06/10 09:52:57;;;;;;;5.35;3.95;;;;;;;28.22;45.77;96340.16;2082164;28;20580;-61
2023/06/10 09:54:01;;;;;;;6.90;4.10;;;;;;;27.93;45.08;96339.13;2081991;28;20212;-61
2023/06/10 09:55:03;;;;;;;6.03;4.10;;;;;;;27.64;46.29;96336.28;2082347;28;20205;-61
2023/06/10 09:56:06;;;;;;;9.05;4.60;;;;;;;27.08;46.43;96343.78;2078066;28;20224;-61
2023/06/10 09:57:11;;;;;;;6.57;3.92;;;;;;;27.26;45.79;96343.47;2081772;28;20562;-61
2023/06/10 09:58:12;;;;;;;6.05;4.25;;;;;;;26.77;46.98;96348.19;2081658;28;20204;-61
2023/06/10 09:59:14;;;;;;;18.17;4.25;;;;;;;26.55;46.98;96350.63;2081362;28;20204;-61
2023/06/10 10:00:16;;;;;;;8.40;4.55;;;;;;;25.91;46.95;96342.69;2081575;28;20607;-60
2023/06/10 10:01:18;;;;;;;12.27;5.65;;;;;;;26.46;47.67;96340.13;2081489;28;20227;-61
2023/06/10 10:02:20;;;;;;;6.57;4.50;;;;;;;27.28;47.05;96336.09;2082610;28;20256;-60
2023/06/10 10:03:23;;;;;;;6.00;4.80;;;;;;;28.00;46.57;96342.75;2082376;28;20648;-61
2023/06/10 10:04:25;;;;;;;6.93;4.38;;;;;;;28.47;45.15;96344.19;2077723;28;20189;-61
2023/06/10 10:05:27;;;;;;;6.35;5.18;;;;;;;27.55;45.41;96340.03;2073282;28;20204;-61
2023/06/10 10:06:30;;;;;;;9.05;4.95;;;;;;;27.89;45.69;96338.66;2079682;28;20232;-61
2023/06/10 10:07:31;;;;;;;7.65;4.95;;;;;;;28.45;45.71;96338.16;2089675;28;20238;-61
2023/06/10 10:08:33;;;;;;;8.85;4.80;;;;;;;28.64;45.58;96341.28;2082106;28;20204;-61
2023/06/10 10:09:38;;;;;;;6.53;4.55;;;;;;;28.93;44.21;96326.94;2078520;28;20190;-61
2023/06/10 10:10:40;;;;;;;4.80;3.95;;;;;;;29.09;44.50;96333.06;2081473;28;20775;-61
2023/06/10 10:11:43;;;;;;;6.30;4.20;;;;;;;29.11;44.78;96331.84;2081676;28;20253;-60
2023/06/10 10:12:47;;;;;;;8.05;4.30;;;;;;;29.22;44.37;96329.69;2088729;28;20199;-61
2023/06/10 10:13:50;;;;;;;5.60;3.83;;;;;;;29.03;45.09;96334.66;2085593;28;20205;-61
2023/06/10 10:14:55;;;;;;;5.13;4.22;;;;;;;28.28;44.86;96334.06;2085441;28;20210;-61
2023/06/10 10:16:01;;;;;;;4.70;3.67;;;;;;;27.56;46.71;96322.13;2081303;28;20198;-61
2023/06/10 10:17:09;;;;;;;6.00;4.82;;;;;;;27.50;46.67;96324.50;2081176;28;21104;-60
2023/06/10 10:18:17;;;;;;;9.40;4.65;;;;;;;27.62;46.29;96332.09;2082831;28;20216;-60
2023/06/10 10:19:29;;;;;;;7.20;4.10;;;;;;;27.27;47.05;96326.38;2081394;28;20201;-60
2023/06/10 10:20:34;;;;;;;7.00;4.90;;;;;;;27.20;47.15;96337.00;2081939;28;20526;-60
2023/06/10 10:21:41;;;;;;;7.27;4.00;;;;;;;27.40;46.91;96337.34;2082509;28;20457;-61
2023/06/10 10:22:44;;;;;;;5.03;4.20;;;;;;;27.62;46.62;96338.28;2081429;28;20421;-61
2023/06/10 10:23:59;;;;;;;6.80;4.55;;;;;;;28.37;45.40;96330.22;2078324;28;20489;-60
2023/06/10 10:25:05;;;;;;;5.38;3.80;;;;;;;28.06;45.58;96331.31;2081561;28;20258;-61
2023/06/10 10:26:10;;;;;;;5.10;3.73;;;;;;;27.55;45.21;96337.34;2087942;28;20247;-60
2023/06/10 10:27:36;;;;;;;5.10;4.00;;;;;;;27.95;44.97;96334.44;2087173;28;20426;-61
2023/06/10 10:28:44;;;;;;;7.53;4.20;;;;;;;28.79;43.75;96333.19;2081115;28;20516;-60
2023/06/10 10:29:48;;;;;;;5.37;3.67;;;;;;;28.59;43.66;96322.22;2082732;28;20522;-61
2023/06/10 10:30:54;;;;;;;9.37;4.53;;;;;;;28.30;43.93;96330.16;2080755;28;20834;-60
2023/06/10 10:31:59;;;;;;;4.50;3.90;;;;;;;28.29;44.91;96328.50;2081625;28;20453;-60
2023/06/10 10:33:09;;;;;;;6.37;3.67;;;;;;;28.67;43.61;96330.16;2081466;28;20426;-60
2023/06/10 10:34:16;;;;;;;7.17;4.30;;;;;;;28.38;44.44;96331.91;2081417;28;20491;-60
2023/06/10 10:35:23;;;;;;;9.43;3.90;;;;;;;28.91;43.46;96336.19;2080997;28;20434;-59
2023/06/10 10:36:25;;;;;;;7.20;3.90;;;;;;;29.16;42.62;96324.03;2080613;28;20985;-61
2023/06/10 10:37:28;;;;;;;9.55;4.85;;;;;;;28.10;43.53;96332.59;2079881;28;20205;-60
2023/06/10 10:38:30;;;;;;;5.60;4.37;;;;;;;27.86;43.41;96329.16;2082092;28;20266;-60
2023/06/10 10:39:34;;;;;;;4.60;3.72;;;;;;;28.16;43.81;96322.94;2081078;28;20465;-59
2023/06/10 10:40:36;;;;;;;14.25;5.15;;;;;;;28.82;43.85;96330.13;2089159;28;20713;-59
2023/06/10 10:41:39;;;;;;;6.65;3.70;;;;;;;29.26;42.72;96322.88;2088393;28;20327;-59
2023/06/10 10:42:41;;;;;;;8.57;3.80;;;;;;;29.67;42.50;96321.34;2081336;28;20194;-59
2023/06/10 10:43:45;;;;;;;5.32;3.80;;;;;;;30.08;41.60;96326.78;2081769;28;20709;-59
2023/06/10 10:44:46;;;;;;;8.77;5.25;;;;;;;30.60;41.12;96329.06;2080141;28;20978;-60
2023/06/10 10:45:59;;;;;;;17.90;12.87;;;;;;;29.93;41.75;96326.91;2074026;28;20324;-59
2023/06/10 10:47:04;;;;;;;43.67;34.13;;;;;;;29.51;42.41;96320.63;2075540;28;20802;-60
2023/06/10 10:48:11;;;;;;;9.73;8.17;;;;;;;30.18;41.69;96333.66;2075414;28;20430;-59
2023/06/10 10:49:15;;;;;;;12.47;4.83;;;;;;;29.92;41.91;96322.56;2075741;28;20415;-59
2023/06/10 10:50:18;;;;;;;17.20;4.20;;;;;;;29.34;41.51;96325.44;2076248;28;20984;-59
2023/06/10 10:51:22;;;;;;;9.07;4.10;;;;;;;29.17;43.28;96331.06;2075267;28;20466;-59
2023/06/10 10:52:23;;;;;;;5.33;3.50;;;;;;;29.47;42.58;96335.47;2076521;28;20423;-59
2023/06/10 10:53:28;;;;;;;4.80;3.70;;;;;;;29.07;43.30;96325.19;2072373;28;20435;-59
2023/06/10 10:54:34;;;;;;;4.03;3.60;;;;;;;28.72;43.84;96318.88;2072975;28;20431;-59
2023/06/10 10:55:36;;;;;;;5.50;3.90;;;;;;;28.56;43.86;96323.44;2072509;28;20423;-59
2023/06/10 10:56:38;;;;;;;6.50;4.20;;;;;;;28.82;43.76;96325.59;2073400;28;20482;-60
2023/06/10 10:57:39;;;;;;;6.07;3.87;;;;;;;29.37;42.68;96334.97;2073867;28;20430;-59
2023/06/10 10:58:41;;;;;;;4.90;3.80;;;;;;;29.87;42.47;96327.66;2076925;28;20459;-60
2023/06/10 10:59:49;;;;;;;8.00;4.13;;;;;;;29.99;41.99;96325.28;2077746;28;20473;-59
2023/06/10 11:00:50;;;;;;;8.67;4.80;;;;;;;30.40;41.77;96321.72;2077184;28;20426;-62
2023/06/10 11:01:52;;;;;;;10.60;7.07;;;;;;;30.50;40.82;96317.84;2079874;28;20722;-59
2023/06/10 11:02:58;;;;;;;47.80;33.93;;;;;;;30.52;41.21;96315.78;2077176;28;20435;-59
2023/06/10 11:04:07;;;;;;;32.10;22.07;;;;;;;30.51;40.55;96324.91;2077267;28;20439;-59
2023/06/10 11:05:11;;;;;;;360.13;285.43;;;;;;;31.08;40.98;96311.97;2076414;28;20934;-59
2023/06/10 11:06:21;;;;;;;342.60;219.00;;;;;;;31.23;40.17;96319.88;2076348;28;20450;-59
2023/06/10 11:07:25;;;;;;;195.57;124.20;;;;;;;31.51;39.60;96316.13;2077411;28;20434;-59
2023/06/10 11:08:32;;;;;;;22.17;15.17;;;;;;;31.59;39.77;96324.00;2074356;28;20438;-59
2023/06/10 11:09:34;;;;;;;32.20;25.67;;;;;;;31.71;39.63;96318.84;2075716;28;20459;-59
2023/06/10 11:10:38;;;;;;;13.80;8.40;;;;;;;31.20;39.51;96309.53;2081584;28;20521;-59
2023/06/10 11:11:49;;;;;;;8.83;6.60;;;;;;;29.98;40.48;96318.25;2082303;28;20465;-59
2023/06/10 11:12:53;;;;;;;6.00;3.50;;;;;;;28.85;41.47;96313.63;2075888;28;20541;-59
2023/06/10 11:14:00;;;;;;;5.30;4.27;;;;;;;29.47;40.69;96314.81;2075578;28;20842;-59
2023/06/10 11:15:01;;;;;;;5.30;3.87;;;;;;;28.72;42.36;96317.03;2076809;28;20466;-59
2023/06/10 11:16:04;;;;;;;8.87;3.80;;;;;;;28.47;40.88;96316.53;2075663;28;21000;-59
2023/06/10 11:17:18;;;;;;;5.60;3.90;;;;;;;29.50;40.92;96308.19;2075531;28;20427;-59
2023/06/10 11:18:20;;;;;;;8.93;5.30;;;;;;;29.55;39.77;96313.00;2075341;28;20453;-59
2023/06/10 11:19:38;;;;;;;35.90;26.17;;;;;;;29.78;39.84;96313.53;2074269;28;20441;-59
2023/06/10 11:20:49;;;;;;;7.17;4.20;;;;;;;29.59;40.32;96307.00;2072749;28;20427;-59
2023/06/10 11:22:20;;;;;;;6.83;4.63;;;;;;;29.56;41.63;96306.56;2083265;28;20445;-58
2023/06/10 11:23:28;;;;;;;4.73;4.23;;;;;;;28.90;41.68;96294.22;2070057;28;20482;-58
2023/06/10 11:24:30;;;;;;;5.50;3.23;;;;;;;27.81;43.96;96294.00;2074049;28;20489;-58
2023/06/10 11:25:40;;;;;;;4.57;3.80;;;;;;;26.89;43.63;96301.25;2075704;28;20427;-59
2023/06/10 11:26:45;;;;;;;6.03;4.07;;;;;;;26.94;43.72;96306.03;2075780;28;20490;-58
2023/06/10 11:27:51;;;;;;;7.13;3.40;;;;;;;27.80;43.18;96302.25;2075863;28;20438;-59
2023/06/10 11:28:53;;;;;;;6.67;4.23;;;;;;;29.09;42.43;96306.19;2077310;28;20438;-58
2023/06/10 11:30:00;;;;;;;3.90;3.30;;;;;;;29.98;40.58;96304.78;2076156;28;20459;-58
2023/06/10 11:31:02;;;;;;;4.60;3.20;;;;;;;30.39;40.16;96303.91;2075351;28;20201;-58
2023/06/10 11:32:05;;;;;;;5.83;4.07;;;;;;;30.28;39.50;96296.41;2075032;28;20538;-58
2023/06/10 11:33:07;;;;;;;6.77;4.03;;;;;;;30.40;38.98;96310.16;2075223;28;20726;-58
2023/06/10 11:34:09;;;;;;;6.60;3.57;;;;;;;30.94;38.52;96319.19;2074727;28;20466;-58
2023/06/10 11:35:11;;;;;;;4.93;4.13;;;;;;;30.28;38.26;96301.81;2075307;28;20920;-58
2023/06/10 11:36:14;;;;;;;6.00;3.47;;;;;;;30.37;39.17;96308.69;2074981;28;20471;-58
2023/06/10 11:37:16;;;;;;;6.50;4.13;;;;;;;29.50;38.64;96302.81;2072204;28;20442;-58
2023/06/10 11:38:18;;;;;;;5.27;3.23;;;;;;;27.97;41.60;96287.63;2072380;28;20462;-58
2023/06/10 11:39:21;;;;;;;3.87;3.47;;;;;;;29.28;40.28;96302.03;2076646;28;20427;-58
2023/06/10 11:40:22;;;;;;;6.90;3.73;;;;;;;30.10;39.92;96300.47;2076250;28;20427;-58
2023/06/10 11:41:28;;;;;;;3.20;2.90;;;;;;;30.98;37.91;96293.47;2074774;28;20489;-58
2023/06/10 11:42:30;;;;;;;4.13;3.73;;;;;;;30.68;37.03;96296.56;2074972;28;20513;-58
2023/06/10 11:43:33;;;;;;;5.80;3.60;;;;;;;29.64;39.01;96288.41;2073102;28;20438;-58
2023/06/10 11:44:37;;;;;;;6.00;3.50;;;;;;;28.24;40.44;96290.66;2075011;28;20909;-58
2023/06/10 11:45:41;;;;;;;4.47;3.57;;;;;;;27.53;41.84;96291.13;2075244;28;20484;-58
2023/06/10 11:46:42;;;;;;;6.83;3.50;;;;;;;27.58;42.98;96290.56;2071355;28;20466;-58
2023/06/10 11:48:00;;;;;;;7.22;4.05;;;;;;;28.25;42.43;96292.31;2075506;28;20445;-58
2023/06/10 11:49:03;;;;;;;4.07;3.27;;;;;;;29.32;41.30;96301.44;2075783;28;20705;-58
2023/06/10 11:50:05;;;;;;;4.67;3.93;;;;;;;30.51;38.62;96289.88;2074996;28;21111;-58
2023/06/10 11:51:07;;;;;;;6.43;3.87;;;;;;;31.19;38.25;96297.06;2076813;28;20533;-58
2023/06/10 11:52:09;;;;;;;4.70;3.53;;;;;;;29.70;39.70;96289.50;2072933;28;20427;-58
2023/06/10 11:53:11;;;;;;;6.27;4.23;;;;;;;30.09;39.81;96296.16;2076137;28;20438;-63
2023/06/10 11:54:15;;;;;;;10.13;4.50;;;;;;;30.79;40.39;96300.50;2074253;28;20447;-56
2023/06/10 11:55:17;;;;;;;27.70;20.87;;;;;;;30.50;40.16;96283.69;2074304;28;20513;-58
2023/06/10 11:56:23;;;;;;;42.73;35.27;;;;;;;30.37;40.47;96297.06;2074563;28;20462;-58
2023/06/10 11:57:25;;;;;;;73.07;51.33;;;;;;;30.84;39.29;96292.63;2073483;28;20466;-57
2023/06/10 11:58:27;;;;;;;12.53;9.47;;;;;;;30.57;38.64;96302.56;2075394;28;20921;-57
2023/06/10 11:59:29;;;;;;;5.43;4.40;;;;;;;30.88;39.20;96293.91;2076625;28;21115;-57
2023/06/10 12:00:31;;;;;;;3.93;3.40;;;;;;;30.92;37.51;96291.63;2075569;28;20427;-58
2023/06/10 12:01:34;;;;;;;4.40;3.93;;;;;;;31.33;38.23;96289.81;2073895;28;20474;-58
2023/06/10 12:02:36;;;;;;;3.73;3.23;;;;;;;31.28;38.08;96287.72;2075247;28;20911;-58
2023/06/10 12:03:38;;;;;;;4.57;3.50;;;;;;;30.27;38.97;96282.13;2074365;28;20510;-58
2023/06/10 12:04:40;;;;;;;6.23;3.80;;;;;;;30.08;40.24;96293.63;2075237;28;21192;-58
2023/06/10 12:06:14;;;;;;;5.07;3.73;;;;;;;29.64;38.45;96284.91;2075318;28;20806;-58
2023/06/10 12:07:19;;;;;;;8.93;4.07;;;;;;;28.44;41.63;96288.19;2073645;28;20525;-58
2023/06/10 12:08:21;;;;;;;3.80;3.40;;;;;;;28.37;42.19;96283.75;2072296;28;20485;-58
2023/06/10 12:09:26;;;;;;;4.37;3.50;;;;;;;28.53;42.40;96286.19;2075709;28;20427;-58
2023/06/10 12:10:29;;;;;;;5.93;4.37;;;;;;;28.40;42.21;96264.59;2075267;28;20477;-59
2023/06/10 12:11:31;;;;;;;18.67;14.70;;;;;;;28.75;41.87;96279.03;2074519;28;20600;-59
2023/06/10 12:12:36;;;;;;;32.47;24.23;;;;;;;29.30;41.09;96279.28;2076036;28;20439;-58
2023/06/10 12:13:48;;;;;;;9.17;7.23;;;;;;;30.39;40.45;96284.25;2075320;28;21020;-58
2023/06/10 12:14:59;;;;;;;7.20;5.63;;;;;;;30.97;39.75;96281.06;2075350;28;20431;-58
2023/06/10 12:16:09;;;;;;;10.17;4.50;;;;;;;31.87;39.36;96275.19;2074335;28;20430;-58
2023/06/10 12:17:10;;;;;;;4.13;3.10;;;;;;;31.99;37.80;96272.66;2078393;28;20422;-57
2023/06/10 12:18:23;;;;;;;4.80;3.63;;;;;;;31.04;39.54;96276.50;2073089;28;20515;-59
2023/06/10 12:19:24;;;;;;;8.73;3.90;;;;;;;29.35;40.26;96280.59;2075661;28;20430;-58
2023/06/10 12:20:28;;;;;;;6.43;3.30;;;;;;;30.60;39.96;96280.56;2075323;28;20975;-58
2023/06/10 12:21:31;;;;;;;4.13;3.53;;;;;;;31.63;39.20;96282.13;2074574;28;20455;-58
2023/06/10 12:22:39;;;;;;;4.00;2.97;;;;;;;32.28;38.01;96285.84;2075282;28;20454;-58
2023/06/10 12:23:59;;;;;;;4.57;3.43;;;;;;;32.07;39.37;96285.09;2075558;28;20565;-59
2023/06/10 12:25:06;;;;;;;6.50;3.63;;;;;;;30.77;41.14;96283.72;2073757;28;20517;-59
2023/06/10 12:26:08;;;;;;;4.70;4.20;;;;;;;30.70;40.70;96285.56;2075855;28;20802;-59
2023/06/10 12:27:13;;;;;;;6.40;3.60;;;;;;;30.21;41.83;96282.13;2071746;28;20496;-59
2023/06/10 12:28:15;;;;;;;4.63;3.80;;;;;;;30.16;41.59;96282.72;2074897;28;20779;-59
2023/06/10 12:29:20;;;;;;;4.83;3.67;;;;;;;29.91;41.75;96285.09;2074670;28;20431;-59
2023/06/10 12:30:24;;;;;;;6.40;3.57;;;;;;;29.45;42.20;96276.50;2075129;28;20427;-58
2023/06/10 12:31:25;;;;;;;9.53;3.00;;;;;;;29.64;42.30;96284.91;2074238;28;20463;-57
2023/06/10 12:32:41;;;;;;;5.50;3.70;;;;;;;30.12;40.69;96289.53;2071684;28;20442;-57
2023/06/10 12:33:45;;;;;;;5.27;3.80;;;;;;;29.54;42.53;96289.81;2072312;28;20822;-57
2023/06/10 12:34:47;;;;;;;4.67;3.40;;;;;;;29.80;42.30;96286.44;2075779;28;20910;-57
2023/06/10 12:35:50;;;;;;;8.73;3.40;;;;;;;29.70;42.51;96284.13;2074571;28;20470;-57
2023/06/10 12:36:52;;;;;;;4.60;3.50;;;;;;;30.36;40.82;96290.88;2075055;28;20434;-57
2023/06/10 12:38:00;;;;;;;5.70;3.20;;;;;;;28.45;40.97;96284.47;2075433;28;20511;-57
2023/06/10 12:39:03;;;;;;;4.17;3.03;;;;;;;28.22;40.50;96281.94;2076115;28;20423;-57
2023/06/10 12:40:06;;;;;;;4.63;3.87;;;;;;;28.01;42.60;96280.00;2075691;28;20775;-57
2023/06/10 12:41:08;;;;;;;4.63;3.27;;;;;;;27.17;42.39;96281.91;2075006;28;20451;-57
2023/06/10 12:42:10;;;;;;;12.93;4.53;;;;;;;27.50;43.61;96278.94;2075018;28;20431;-57
2023/06/10 12:43:11;;;;;;;5.47;3.90;;;;;;;27.94;43.60;96281.78;2074854;28;20438;-57
2023/06/10 12:44:13;;;;;;;6.00;3.83;;;;;;;28.02;44.31;96279.84;2076477;28;20431;-57
2023/06/10 12:45:14;;;;;;;8.00;3.53;;;;;;;28.94;41.69;96279.41;2075995;28;20463;-57
2023/06/10 12:46:18;;;;;;;4.30;3.67;;;;;;;29.96;41.83;96277.25;2074409;28;20462;-57
2023/06/10 12:47:32;;;;;;;6.37;3.63;;;;;;;29.84;40.67;96276.09;2076563;28;20536;-57
2023/06/10 12:48:34;;;;;;;7.83;3.47;;;;;;;29.44;41.94;96282.91;2074831;28;20422;-57
2023/06/10 12:49:37;;;;;;;4.07;3.20;;;;;;;29.25;42.07;96275.50;2074820;28;20431;-56
2023/06/10 12:50:41;;;;;;;4.60;3.10;;;;;;;29.20;40.32;96269.91;2071643;28;20431;-57
2023/06/10 12:51:43;;;;;;;5.00;3.53;;;;;;;28.53;42.09;96275.47;2072679;28;20459;-56
2023/06/10 12:52:44;;;;;;;7.37;3.87;;;;;;;29.12;40.91;96279.75;2076024;28;20434;-57
2023/06/10 12:53:46;;;;;;;3.70;2.70;;;;;;;29.28;41.31;96284.06;2072153;28;20466;-57
2023/06/10 12:54:48;;;;;;;3.80;3.37;;;;;;;30.22;40.19;96283.75;2071500;28;20558;-57
2023/06/10 12:55:50;;;;;;;4.80;3.87;;;;;;;30.71;38.98;96279.97;2072817;28;20567;-57
2023/06/10 12:56:52;;;;;;;3.83;3.27;;;;;;;31.19;39.54;96284.41;2073887;28;20961;-56
2023/06/10 12:57:55;;;;;;;5.30;3.67;;;;;;;31.90;37.71;96272.06;2080636;28;20949;-57
2023/06/10 12:58:56;;;;;;;4.00;3.00;;;;;;;32.12;37.22;96282.56;2075109;28;20542;-57
2023/06/10 13:00:03;;;;;;;6.40;2.93;;;;;;;32.26;36.96;96282.56;2075321;28;20518;-56
2023/06/10 13:01:05;;;;;;;4.57;3.40;;;;;;;31.87;37.09;96279.75;2075737;28;20865;-57
2023/06/10 13:02:07;;;;;;;4.30;3.00;;;;;;;31.32;37.16;96267.38;2074792;28;20426;-57
2023/06/10 13:03:09;;;;;;;6.83;3.00;;;;;;;29.31;38.25;96274.78;2074177;28;20488;-57
2023/06/10 13:04:11;;;;;;;6.80;3.10;;;;;;;28.01;41.37;96258.53;2074970;28;20473;-56
2023/06/10 13:05:13;;;;;;;4.67;3.73;;;;;;;28.44;40.37;96269.41;2075320;28;20552;-56
2023/06/10 13:06:18;;;;;;;4.57;3.80;;;;;;;28.63;40.30;96269.78;2073630;28;20466;-57
2023/06/10 13:07:20;;;;;;;6.23;4.27;;;;;;;28.62;39.18;96255.53;2075861;28;20495;-56
2023/06/10 13:08:21;;;;;;;10.23;6.27;;;;;;;28.84;40.30;96274.34;2074587;28;20427;-56
2023/06/10 13:09:23;;;;;;;14.13;3.50;;;;;;;28.86;39.11;96264.22;2074580;28;20427;-56
2023/06/10 13:10:25;;;;;;;9.83;4.30;;;;;;;29.70;38.62;96267.97;2075181;28;20530;-57
2023/06/10 13:11:26;;;;;;;6.80;4.27;;;;;;;30.43;38.22;96262.06;2074544;28;20466;-57
2023/06/10 13:12:28;;;;;;;5.37;3.77;;;;;;;30.13;39.36;96261.56;2076086;28;20427;-56
2023/06/10 13:13:46;;;;;;;4.40;3.73;;;;;;;31.06;38.21;96263.69;2073954;28;20435;-57
2023/06/10 13:14:48;;;;;;;6.30;3.80;;;;;;;30.67;38.64;96262.56;2075255;28;20449;-56
2023/06/10 13:15:50;;;;;;;4.57;3.00;;;;;;;30.22;39.04;96262.22;2074105;28;20537;-56
2023/06/10 13:16:51;;;;;;;5.37;3.70;;;;;;;30.01;39.35;96255.94;2074981;28;20518;-57
2023/06/10 13:17:53;;;;;;;3.30;2.70;;;;;;;29.89;39.20;96258.38;2075284;28;20422;-56
2023/06/10 13:18:54;;;;;;;4.33;3.20;;;;;;;29.88;39.31;96264.78;2074809;28;20431;-57
2023/06/10 13:19:56;;;;;;;6.20;3.30;;;;;;;29.67;39.59;96267.53;2076193;28;21205;-57
2023/06/10 13:20:57;;;;;;;6.43;3.90;;;;;;;29.63;39.56;96269.78;2075446;28;20437;-57
2023/06/10 13:21:59;;;;;;;6.63;3.53;;;;;;;29.38;39.25;96261.38;2074906;28;21173;-57
2023/06/10 13:23:01;;;;;;;4.57;3.50;;;;;;;29.68;39.10;96251.19;2071414;28;20435;-56
2023/06/10 13:24:03;;;;;;;5.10;3.40;;;;;;;30.58;38.24;96248.47;2082139;28;20426;-57
2023/06/10 13:25:07;;;;;;;8.03;3.70;;;;;;;31.35;37.47;96260.75;2081588;28;20434;-56
2023/06/10 13:26:09;;;;;;;3.83;2.93;;;;;;;32.07;36.47;96253.53;2074490;28;20530;-56
2023/06/10 13:27:13;;;;;;;3.70;3.07;;;;;;;32.43;35.99;96253.16;2076396;28;20501;-57
2023/06/10 13:28:15;;;;;;;4.07;3.33;;;;;;;32.47;36.49;96251.69;2071064;28;20431;-57
2023/06/10 13:29:16;;;;;;;6.47;3.50;;;;;;;32.58;36.50;96258.28;2072018;28;20424;-57
2023/06/10 13:30:18;;;;;;;4.20;3.27;;;;;;;32.68;36.34;96256.75;2074853;28;20427;-56
2023/06/10 13:31:20;;;;;;;6.00;3.50;;;;;;;32.91;36.57;96249.94;2073518;28;20482;-57
2023/06/10 13:32:22;;;;;;;3.77;3.10;;;;;;;31.89;36.22;96245.28;2075057;28;20431;-57
2023/06/10 13:33:24;;;;;;;3.67;3.13;;;;;;;31.66;36.83;96249.31;2074451;28;20429;-57
2023/06/10 13:34:25;;;;;;;4.17;3.07;;;;;;;31.57;37.09;96247.84;2074724;28;20463;-57
2023/06/10 13:35:27;;;;;;;6.10;3.23;;;;;;;32.17;36.72;96247.66;2071202;28;20505;-57
2023/06/10 13:36:28;;;;;;;5.77;3.33;;;;;;;32.51;36.52;96244.81;2070874;28;20464;-57
2023/06/10 13:37:30;;;;;;;4.43;3.20;;;;;;;32.14;36.70;96242.69;2071308;28;20741;-58
2023/06/10 13:38:31;;;;;;;4.00;3.30;;;;;;;31.38;37.03;96246.84;2071706;28;20430;-57
2023/06/10 13:39:33;;;;;;;5.13;3.40;;;;;;;31.07;37.74;96235.69;2074454;28;20562;-57
2023/06/10 13:40:38;;;;;;;4.90;3.30;;;;;;;30.29;38.26;96250.44;2071235;28;20435;-62
2023/06/10 13:41:41;;;;;;;5.93;3.10;;;;;;;30.35;38.36;96242.56;2070739;28;20517;-59
2023/06/10 13:43:02;;;;;;;4.43;3.00;;;;;;;29.76;39.08;96248.38;2073419;28;20435;-64
2023/06/10 13:44:04;;;;;;;4.20;3.20;;;;;;;29.52;38.80;96252.34;2074812;28;20443;-57
2023/06/10 13:45:06;;;;;;;2.93;2.57;;;;;;;30.08;38.80;96239.81;2074834;28;20426;-57
2023/06/10 13:46:08;;;;;;;15.83;2.77;;;;;;;31.02;37.17;96245.38;2073411;28;20461;-57
2023/06/10 13:47:10;;;;;;;4.00;3.20;;;;;;;31.40;37.04;96242.91;2075437;28;20430;-57
2023/06/10 13:48:12;;;;;;;5.07;3.47;;;;;;;32.04;36.22;96239.63;2075136;28;20447;-57
2023/06/10 13:49:14;;;;;;;6.17;4.37;;;;;;;32.51;35.52;96250.22;2074853;28;20483;-57
2023/06/10 13:50:15;;;;;;;7.73;4.70;;;;;;;32.85;35.47;96238.16;2074536;28;20450;-57
2023/06/10 13:51:17;;;;;;;4.37;3.93;;;;;;;32.19;35.40;96251.00;2070558;28;20451;-58
2023/06/10 13:52:18;;;;;;;3.77;3.00;;;;;;;30.81;37.40;96249.13;2071078;28;20438;-57
2023/06/10 13:53:20;;;;;;;4.77;3.60;;;;;;;29.96;37.56;96243.06;2073566;28;20903;-58
2023/06/10 13:54:21;;;;;;;3.17;2.50;;;;;;;30.48;37.45;96247.22;2072443;28;20493;-57
2023/06/10 13:55:24;;;;;;;3.87;2.90;;;;;;;30.74;36.65;96238.31;2074527;28;20469;-57
2023/06/10 13:56:26;;;;;;;3.40;2.90;;;;;;;31.72;36.26;96242.25;2081286;28;20466;-57
2023/06/10 13:57:27;;;;;;;8.47;3.20;;;;;;;32.03;36.51;96236.09;2081959;28;20474;-57
2023/06/10 13:58:29;;;;;;;3.17;2.80;;;;;;;32.78;35.34;96239.25;2075500;28;20577;-57
2023/06/10 13:59:30;;;;;;;4.93;2.63;;;;;;;33.04;34.97;96243.63;2074716;28;20467;-57
2023/06/10 14:00:32;;;;;;;3.73;2.87;;;;;;;33.16;35.30;96243.72;2071004;28;20921;-57
2023/06/10 14:01:34;;;;;;;3.87;2.77;;;;;;;32.99;34.52;96230.78;2070700;28;20538;-57
2023/06/10 14:02:36;;;;;;;4.70;2.90;;;;;;;32.75;34.97;96237.81;2074541;28;20788;-57
2023/06/10 14:03:37;;;;;;;2.90;2.50;;;;;;;33.35;34.34;96225.69;2073617;28;20429;-61
2023/06/10 14:04:39;;;;;;;4.27;3.00;;;;;;;33.51;34.03;96230.53;2073822;28;20431;-57
2023/06/10 14:05:41;;;;;;;3.67;3.07;;;;;;;33.03;34.03;96223.06;2074521;28;20427;-57
2023/06/10 14:06:43;;;;;;;4.50;2.37;;;;;;;33.31;34.23;96221.78;2073489;28;20455;-57
2023/06/10 14:07:45;;;;;;;7.30;2.87;;;;;;;33.73;33.29;96227.38;2075764;28;21176;-57
2023/06/10 14:08:46;;;;;;;3.73;2.43;;;;;;;34.06;33.36;96230.78;2075371;28;20426;-58
2023/06/10 14:09:48;;;;;;;6.63;2.57;;;;;;;34.39;32.02;96218.69;2074814;28;20491;-58
2023/06/10 14:10:51;;;;;;;6.80;2.33;;;;;;;34.46;31.59;96231.09;2074241;28;20514;-58
2023/06/10 14:11:52;;;;;;;3.50;2.80;;;;;;;34.07;32.79;96226.97;2074895;28;20569;-57
2023/06/10 14:12:54;;;;;;;4.33;3.03;;;;;;;32.97;33.54;96226.63;2074491;28;20910;-57
2023/06/10 14:13:58;;;;;;;3.37;2.53;;;;;;;33.03;33.42;96223.06;2081562;28;20484;-57
2023/06/10 14:15:00;;;;;;;5.17;2.70;;;;;;;33.70;33.24;96234.06;2078016;28;20441;-58
2023/06/10 14:16:02;;;;;;;3.60;2.50;;;;;;;33.45;33.18;96226.00;2070782;28;20696;-58
2023/06/10 14:17:05;;;;;;;4.07;2.97;;;;;;;32.65;34.20;96229.34;2074741;28;20459;-57
2023/06/10 14:18:07;;;;;;;4.70;2.40;;;;;;;32.04;35.08;96229.66;2075370;28;20507;-58
2023/06/10 14:19:08;;;;;;;3.07;2.63;;;;;;;31.74;34.98;96229.34;2074287;28;20435;-57
2023/06/10 14:20:10;;;;;;;36.63;32.50;;;;;;;30.90;35.95;96229.03;2073894;28;20443;-57
2023/06/10 14:21:12;;;;;;;85.97;72.67;;;;;;;30.85;35.85;96221.53;2075461;28;20451;-57
2023/06/10 14:22:13;;;;;;;9.87;8.90;;;;;;;30.31;36.35;96231.41;2076403;28;20507;-58
2023/06/10 14:23:15;;;;;;;6.30;4.03;;;;;;;30.06;36.85;96225.75;2076640;28;20453;-57
2023/06/10 14:24:16;;;;;;;3.40;2.90;;;;;;;28.50;38.63;96228.34;2076469;28;20442;-57